sensor_id;sensor_type;location;lat;lon;timestamp;P1;durP1;ratioP1;P2;durP2;ratioP2
35290;SDS011;21411;50.024;19.220;2023-06-05T00:01:59;8.20;;;5.70;;
35290;SDS011;21411;50.024;19.220;2023-06-05T00:04:25;7.90;;;5.30;;
35290;SDS011;21411;50.024;19.220;2023-06-05T00:06:54;8.30;;;5.90;;
35290;SDS011;21411;50.024;19.220;2023-06-05T00:09:21;10.50;;;5.70;;
35290;SDS011;21411;50.024;19.220;2023-06-05T00:11:48;10.80;;;6.70;;
35290;SDS011;21411;50.024;19.220;2023-06-05T00:14:14;9.10;;;6.10;;
35290;SDS011;21411;50.024;19.220;2023-06-05T00:16:41;9.10;;;6.30;;
35290;SDS011;21411;50.024;19.220;2023-06-05T00:19:08;11.00;;;6.90;;
35290;SDS011;21411;50.024;19.220;2023-06-05T00:21:34;8.80;;;6.50;;
35290;SDS011;21411;50.024;19.220;2023-06-05T00:24:01;9.60;;;7.00;;
35290;SDS011;21411;50.024;19.220;2023-06-05T00:26:28;12.50;;;8.00;;
35290;SDS011;21411;50.024;19.220;2023-06-05T00:28:54;10.40;;;7.10;;
35290;SDS011;21411;50.024;19.220;2023-06-05T00:31:21;7.50;;;6.30;;
35290;SDS011;21411;50.024;19.220;2023-06-05T00:33:48;10.80;;;7.00;;
35290;SDS011;21411;50.024;19.220;2023-06-05T00:36:15;9.00;;;6.50;;
35290;SDS011;21411;50.024;19.220;2023-06-05T00:38:44;8.80;;;6.30;;
35290;SDS011;21411;50.024;19.220;2023-06-05T00:41:11;9.40;;;6.70;;
35290;SDS011;21411;50.024;19.220;2023-06-05T00:43:38;9.30;;;6.50;;
35290;SDS011;21411;50.024;19.220;2023-06-05T00:46:04;9.50;;;6.30;;
35290;SDS011;21411;50.024;19.220;2023-06-05T00:48:31;11.20;;;6.80;;
35290;SDS011;21411;50.024;19.220;2023-06-05T00:50:59;8.70;;;6.20;;
35290;SDS011;21411;50.024;19.220;2023-06-05T00:53:26;10.90;;;7.30;;
35290;SDS011;21411;50.024;19.220;2023-06-05T00:55:56;9.90;;;6.40;;
35290;SDS011;21411;50.024;19.220;2023-06-05T00:58:23;9.60;;;6.30;;
35290;SDS011;21411;50.024;19.220;2023-06-05T01:00:51;10.00;;;5.60;;
35290;SDS011;21411;50.024;19.220;2023-06-05T01:03:20;12.10;;;6.80;;
35290;SDS011;21411;50.024;19.220;2023-06-05T01:05:49;10.50;;;6.80;;
35290;SDS011;21411;50.024;19.220;2023-06-05T01:08:16;13.80;;;7.00;;
35290;SDS011;21411;50.024;19.220;2023-06-05T01:10:52;8.20;;;6.80;;
35290;SDS011;21411;50.024;19.220;2023-06-05T01:13:21;7.90;;;6.60;;
35290;SDS011;21411;50.024;19.220;2023-06-05T01:15:52;9.20;;;6.30;;
35290;SDS011;21411;50.024;19.220;2023-06-05T01:18:21;8.70;;;6.20;;
35290;SDS011;21411;50.024;19.220;2023-06-05T01:20:49;10.80;;;6.70;;
35290;SDS011;21411;50.024;19.220;2023-06-05T01:23:16;14.30;;;12.90;;
35290;SDS011;21411;50.024;19.220;2023-06-05T01:25:43;18.70;;;17.20;;
35290;SDS011;21411;50.024;19.220;2023-06-05T01:28:13;17.40;;;14.90;;
35290;SDS011;21411;50.024;19.220;2023-06-05T01:30:51;8.90;;;7.30;;
35290;SDS011;21411;50.024;19.220;2023-06-05T01:33:36;9.50;;;6.20;;
35290;SDS011;21411;50.024;19.220;2023-06-05T01:36:08;8.30;;;6.50;;
35290;SDS011;21411;50.024;19.220;2023-06-05T01:38:38;8.60;;;7.20;;
35290;SDS011;21411;50.024;19.220;2023-06-05T01:41:07;9.00;;;7.00;;
35290;SDS011;21411;50.024;19.220;2023-06-05T01:43:36;9.50;;;6.70;;
35290;SDS011;21411;50.024;19.220;2023-06-05T01:46:05;10.30;;;7.90;;
35290;SDS011;21411;50.024;19.220;2023-06-05T01:48:35;7.60;;;6.80;;
35290;SDS011;21411;50.024;19.220;2023-06-05T01:51:01;10.70;;;7.50;;
35290;SDS011;21411;50.024;19.220;2023-06-05T01:53:29;9.80;;;7.20;;
35290;SDS011;21411;50.024;19.220;2023-06-05T01:55:56;10.60;;;6.70;;
35290;SDS011;21411;50.024;19.220;2023-06-05T01:58:23;8.10;;;6.80;;
35290;SDS011;21411;50.024;19.220;2023-06-05T02:00:51;9.10;;;7.00;;
35290;SDS011;21411;50.024;19.220;2023-06-05T02:03:23;8.70;;;7.00;;
35290;SDS011;21411;50.024;19.220;2023-06-05T02:05:50;8.20;;;6.50;;
35290;SDS011;21411;50.024;19.220;2023-06-05T02:10:49;6.80;;;5.80;;
35290;SDS011;21411;50.024;19.220;2023-06-05T02:13:15;10.30;;;7.10;;
35290;SDS011;21411;50.024;19.220;2023-06-05T02:15:43;8.60;;;6.40;;
35290;SDS011;21411;50.024;19.220;2023-06-05T02:18:11;8.80;;;6.30;;
35290;SDS011;21411;50.024;19.220;2023-06-05T02:20:40;7.50;;;6.20;;
35290;SDS011;21411;50.024;19.220;2023-06-05T02:23:07;8.20;;;6.90;;
35290;SDS011;21411;50.024;19.220;2023-06-05T02:25:34;6.90;;;6.10;;
35290;SDS011;21411;50.024;19.220;2023-06-05T02:28:01;9.10;;;6.40;;
35290;SDS011;21411;50.024;19.220;2023-06-05T02:30:28;8.60;;;6.40;;
35290;SDS011;21411;50.024;19.220;2023-06-05T02:32:54;10.10;;;6.20;;
35290;SDS011;21411;50.024;19.220;2023-06-05T02:35:26;8.80;;;5.90;;
35290;SDS011;21411;50.024;19.220;2023-06-05T02:37:53;9.90;;;7.40;;
35290;SDS011;21411;50.024;19.220;2023-06-05T02:40:20;10.00;;;6.90;;
35290;SDS011;21411;50.024;19.220;2023-06-05T02:42:46;11.90;;;7.10;;
35290;SDS011;21411;50.024;19.220;2023-06-05T02:45:13;9.30;;;6.40;;
35290;SDS011;21411;50.024;19.220;2023-06-05T02:47:40;8.10;;;6.80;;
35290;SDS011;21411;50.024;19.220;2023-06-05T02:50:07;11.10;;;7.10;;
35290;SDS011;21411;50.024;19.220;2023-06-05T02:52:34;9.70;;;6.40;;
35290;SDS011;21411;50.024;19.220;2023-06-05T02:55:02;10.90;;;6.80;;
35290;SDS011;21411;50.024;19.220;2023-06-05T02:57:29;9.10;;;6.80;;
35290;SDS011;21411;50.024;19.220;2023-06-05T02:59:56;9.80;;;7.10;;
35290;SDS011;21411;50.024;19.220;2023-06-05T03:02:23;9.20;;;7.50;;
35290;SDS011;21411;50.024;19.220;2023-06-05T03:04:51;9.70;;;7.80;;
35290;SDS011;21411;50.024;19.220;2023-06-05T03:07:19;11.60;;;8.20;;
35290;SDS011;21411;50.024;19.220;2023-06-05T03:09:49;11.80;;;8.50;;
35290;SDS011;21411;50.024;19.220;2023-06-05T03:12:15;11.60;;;7.80;;
35290;SDS011;21411;50.024;19.220;2023-06-05T03:14:42;9.70;;;7.00;;
35290;SDS011;21411;50.024;19.220;2023-06-05T03:17:08;11.90;;;7.80;;
35290;SDS011;21411;50.024;19.220;2023-06-05T03:19:35;10.80;;;7.10;;
35290;SDS011;21411;50.024;19.220;2023-06-05T03:22:02;10.90;;;7.20;;
35290;SDS011;21411;50.024;19.220;2023-06-05T03:24:28;14.00;;;7.20;;
35290;SDS011;21411;50.024;19.220;2023-06-05T03:26:55;10.40;;;6.10;;
35290;SDS011;21411;50.024;19.220;2023-06-05T03:29:21;10.90;;;6.90;;
35290;SDS011;21411;50.024;19.220;2023-06-05T03:31:48;11.10;;;7.10;;
35290;SDS011;21411;50.024;19.220;2023-06-05T03:34:15;9.20;;;6.10;;
35290;SDS011;21411;50.024;19.220;2023-06-05T03:36:42;9.60;;;6.70;;
35290;SDS011;21411;50.024;19.220;2023-06-05T03:39:09;10.80;;;7.70;;
35290;SDS011;21411;50.024;19.220;2023-06-05T03:41:36;9.20;;;5.90;;
35290;SDS011;21411;50.024;19.220;2023-06-05T03:44:02;10.30;;;6.30;;
35290;SDS011;21411;50.024;19.220;2023-06-05T03:46:30;9.10;;;6.10;;
35290;SDS011;21411;50.024;19.220;2023-06-05T03:48:57;9.00;;;5.80;;
35290;SDS011;21411;50.024;19.220;2023-06-05T03:51:31;5.60;;;5.00;;
35290;SDS011;21411;50.024;19.220;2023-06-05T03:53:58;6.10;;;5.20;;
35290;SDS011;21411;50.024;19.220;2023-06-05T03:56:26;7.00;;;5.10;;
35290;SDS011;21411;50.024;19.220;2023-06-05T03:59:00;5.80;;;4.70;;
35290;SDS011;21411;50.024;19.220;2023-06-05T04:01:44;6.30;;;4.60;;
35290;SDS011;21411;50.024;19.220;2023-06-05T04:04:11;5.80;;;4.70;;
35290;SDS011;21411;50.024;19.220;2023-06-05T04:06:38;4.60;;;4.20;;
35290;SDS011;21411;50.024;19.220;2023-06-05T04:09:06;5.80;;;4.40;;
35290;SDS011;21411;50.024;19.220;2023-06-05T04:11:39;4.80;;;4.40;;
35290;SDS011;21411;50.024;19.220;2023-06-05T04:14:07;5.40;;;4.50;;
35290;SDS011;21411;50.024;19.220;2023-06-05T04:16:36;6.20;;;4.70;;
35290;SDS011;21411;50.024;19.220;2023-06-05T04:19:07;6.70;;;4.80;;
35290;SDS011;21411;50.024;19.220;2023-06-05T04:21:36;5.60;;;4.10;;
35290;SDS011;21411;50.024;19.220;2023-06-05T04:24:09;5.20;;;4.30;;
35290;SDS011;21411;50.024;19.220;2023-06-05T04:26:37;5.10;;;4.40;;
35290;SDS011;21411;50.024;19.220;2023-06-05T04:29:07;4.10;;;3.60;;
35290;SDS011;21411;50.024;19.220;2023-06-05T04:31:40;5.90;;;4.30;;
35290;SDS011;21411;50.024;19.220;2023-06-05T04:34:08;8.90;;;3.70;;
35290;SDS011;21411;50.024;19.220;2023-06-05T04:36:35;5.00;;;3.80;;
35290;SDS011;21411;50.024;19.220;2023-06-05T04:39:03;4.00;;;3.70;;
35290;SDS011;21411;50.024;19.220;2023-06-05T04:41:30;4.40;;;3.50;;
35290;SDS011;21411;50.024;19.220;2023-06-05T04:43:58;9.60;;;3.60;;
35290;SDS011;21411;50.024;19.220;2023-06-05T04:46:28;3.50;;;3.20;;
35290;SDS011;21411;50.024;19.220;2023-06-05T04:48:55;5.70;;;3.40;;
35290;SDS011;21411;50.024;19.220;2023-06-05T04:51:24;4.20;;;3.60;;
35290;SDS011;21411;50.024;19.220;2023-06-05T04:53:50;3.80;;;3.50;;
35290;SDS011;21411;50.024;19.220;2023-06-05T04:56:19;5.90;;;3.60;;
35290;SDS011;21411;50.024;19.220;2023-06-05T04:58:49;4.50;;;3.40;;
35290;SDS011;21411;50.024;19.220;2023-06-05T05:01:16;4.20;;;3.30;;
35290;SDS011;21411;50.024;19.220;2023-06-05T05:03:44;5.00;;;3.40;;
35290;SDS011;21411;50.024;19.220;2023-06-05T05:06:15;4.70;;;3.70;;
35290;SDS011;21411;50.024;19.220;2023-06-05T05:08:45;4.40;;;3.60;;
35290;SDS011;21411;50.024;19.220;2023-06-05T05:11:14;4.20;;;3.40;;
35290;SDS011;21411;50.024;19.220;2023-06-05T05:13:42;3.60;;;3.30;;
35290;SDS011;21411;50.024;19.220;2023-06-05T05:16:08;3.90;;;3.50;;
35290;SDS011;21411;50.024;19.220;2023-06-05T05:18:37;3.90;;;3.50;;
35290;SDS011;21411;50.024;19.220;2023-06-05T05:21:07;6.40;;;3.50;;
35290;SDS011;21411;50.024;19.220;2023-06-05T05:23:33;5.40;;;3.70;;
35290;SDS011;21411;50.024;19.220;2023-06-05T05:26:00;8.00;;;4.00;;
35290;SDS011;21411;50.024;19.220;2023-06-05T05:28:28;6.20;;;3.80;;
35290;SDS011;21411;50.024;19.220;2023-06-05T05:30:55;10.70;;;4.30;;
35290;SDS011;21411;50.024;19.220;2023-06-05T05:33:24;7.30;;;4.20;;
35290;SDS011;21411;50.024;19.220;2023-06-05T05:35:51;7.90;;;4.60;;
35290;SDS011;21411;50.024;19.220;2023-06-05T05:38:18;4.20;;;3.80;;
35290;SDS011;21411;50.024;19.220;2023-06-05T05:40:44;5.40;;;4.00;;
35290;SDS011;21411;50.024;19.220;2023-06-05T05:43:11;6.80;;;3.60;;
35290;SDS011;21411;50.024;19.220;2023-06-05T05:45:37;9.50;;;4.60;;
35290;SDS011;21411;50.024;19.220;2023-06-05T05:48:06;7.10;;;4.00;;
35290;SDS011;21411;50.024;19.220;2023-06-05T05:50:33;5.00;;;4.00;;
35290;SDS011;21411;50.024;19.220;2023-06-05T05:52:59;5.40;;;4.20;;
35290;SDS011;21411;50.024;19.220;2023-06-05T05:55:26;6.30;;;4.50;;
35290;SDS011;21411;50.024;19.220;2023-06-05T05:57:53;6.00;;;4.40;;
35290;SDS011;21411;50.024;19.220;2023-06-05T06:00:20;4.50;;;4.10;;
35290;SDS011;21411;50.024;19.220;2023-06-05T06:02:47;7.70;;;4.40;;
35290;SDS011;21411;50.024;19.220;2023-06-05T06:05:14;9.40;;;4.30;;
35290;SDS011;21411;50.024;19.220;2023-06-05T06:07:41;14.60;;;5.20;;
35290;SDS011;21411;50.024;19.220;2023-06-05T06:10:09;7.60;;;4.80;;
35290;SDS011;21411;50.024;19.220;2023-06-05T06:12:39;6.70;;;4.50;;
35290;SDS011;21411;50.024;19.220;2023-06-05T06:15:06;7.40;;;4.70;;
35290;SDS011;21411;50.024;19.220;2023-06-05T06:17:34;4.60;;;4.10;;
35290;SDS011;21411;50.024;19.220;2023-06-05T06:20:00;4.50;;;4.10;;
35290;SDS011;21411;50.024;19.220;2023-06-05T06:22:29;6.70;;;4.50;;
35290;SDS011;21411;50.024;19.220;2023-06-05T06:24:56;8.40;;;4.50;;
35290;SDS011;21411;50.024;19.220;2023-06-05T06:27:22;7.20;;;4.40;;
35290;SDS011;21411;50.024;19.220;2023-06-05T06:29:50;7.70;;;4.40;;
35290;SDS011;21411;50.024;19.220;2023-06-05T06:32:20;7.50;;;4.30;;
35290;SDS011;21411;50.024;19.220;2023-06-05T06:34:48;5.80;;;4.10;;
35290;SDS011;21411;50.024;19.220;2023-06-05T06:37:15;8.30;;;4.00;;
35290;SDS011;21411;50.024;19.220;2023-06-05T06:39:42;6.50;;;3.40;;
35290;SDS011;21411;50.024;19.220;2023-06-05T06:42:10;6.70;;;3.50;;
35290;SDS011;21411;50.024;19.220;2023-06-05T06:44:37;5.10;;;3.10;;
35290;SDS011;21411;50.024;19.220;2023-06-05T06:47:04;6.20;;;3.10;;
35290;SDS011;21411;50.024;19.220;2023-06-05T06:49:32;5.50;;;3.40;;
35290;SDS011;21411;50.024;19.220;2023-06-05T06:51:59;3.80;;;3.40;;
35290;SDS011;21411;50.024;19.220;2023-06-05T06:54:26;5.20;;;3.40;;
35290;SDS011;21411;50.024;19.220;2023-06-05T06:56:58;3.70;;;3.20;;
35290;SDS011;21411;50.024;19.220;2023-06-05T06:59:25;6.30;;;3.60;;
35290;SDS011;21411;50.024;19.220;2023-06-05T07:02:07;7.40;;;3.50;;
35290;SDS011;21411;50.024;19.220;2023-06-05T07:07:10;4.70;;;3.30;;
35290;SDS011;21411;50.024;19.220;2023-06-05T07:09:38;4.00;;;3.00;;
35290;SDS011;21411;50.024;19.220;2023-06-05T07:12:07;5.10;;;2.90;;
35290;SDS011;21411;50.024;19.220;2023-06-05T07:14:35;4.40;;;3.10;;
35290;SDS011;21411;50.024;19.220;2023-06-05T07:17:01;5.60;;;3.20;;
35290;SDS011;21411;50.024;19.220;2023-06-05T07:19:32;6.20;;;3.30;;
35290;SDS011;21411;50.024;19.220;2023-06-05T07:22:00;8.60;;;3.50;;
35290;SDS011;21411;50.024;19.220;2023-06-05T07:24:28;3.90;;;2.70;;
35290;SDS011;21411;50.024;19.220;2023-06-05T07:26:57;4.90;;;2.80;;
35290;SDS011;21411;50.024;19.220;2023-06-05T07:29:25;6.20;;;3.00;;
35290;SDS011;21411;50.024;19.220;2023-06-05T07:31:54;4.10;;;3.00;;
35290;SDS011;21411;50.024;19.220;2023-06-05T07:34:23;4.20;;;3.20;;
35290;SDS011;21411;50.024;19.220;2023-06-05T07:36:51;4.60;;;3.20;;
35290;SDS011;21411;50.024;19.220;2023-06-05T07:39:19;4.90;;;3.40;;
35290;SDS011;21411;50.024;19.220;2023-06-05T07:41:46;6.40;;;3.40;;
35290;SDS011;21411;50.024;19.220;2023-06-05T07:44:14;5.70;;;3.20;;
35290;SDS011;21411;50.024;19.220;2023-06-05T07:46:42;4.10;;;2.80;;
35290;SDS011;21411;50.024;19.220;2023-06-05T07:49:09;4.20;;;3.30;;
35290;SDS011;21411;50.024;19.220;2023-06-05T07:51:36;4.40;;;2.70;;
35290;SDS011;21411;50.024;19.220;2023-06-05T07:54:04;5.50;;;3.10;;
35290;SDS011;21411;50.024;19.220;2023-06-05T07:56:32;6.10;;;3.40;;
35290;SDS011;21411;50.024;19.220;2023-06-05T07:59:00;4.50;;;3.40;;
35290;SDS011;21411;50.024;19.220;2023-06-05T08:01:29;6.00;;;2.80;;
35290;SDS011;21411;50.024;19.220;2023-06-05T08:03:57;6.50;;;3.20;;
35290;SDS011;21411;50.024;19.220;2023-06-05T08:06:24;3.90;;;2.50;;
35290;SDS011;21411;50.024;19.220;2023-06-05T08:08:51;6.60;;;3.20;;
35290;SDS011;21411;50.024;19.220;2023-06-05T08:11:17;5.40;;;3.50;;
35290;SDS011;21411;50.024;19.220;2023-06-05T08:13:44;8.10;;;3.40;;
35290;SDS011;21411;50.024;19.220;2023-06-05T08:16:11;6.60;;;3.20;;
35290;SDS011;21411;50.024;19.220;2023-06-05T08:18:38;5.30;;;3.10;;
35290;SDS011;21411;50.024;19.220;2023-06-05T08:21:05;4.00;;;2.80;;
35290;SDS011;21411;50.024;19.220;2023-06-05T08:23:32;5.90;;;2.90;;
35290;SDS011;21411;50.024;19.220;2023-06-05T08:25:59;5.30;;;2.90;;
35290;SDS011;21411;50.024;19.220;2023-06-05T08:28:25;6.20;;;2.90;;
35290;SDS011;21411;50.024;19.220;2023-06-05T08:30:52;6.70;;;2.90;;
35290;SDS011;21411;50.024;19.220;2023-06-05T08:33:19;7.00;;;3.10;;
35290;SDS011;21411;50.024;19.220;2023-06-05T08:35:46;3.70;;;2.90;;
35290;SDS011;21411;50.024;19.220;2023-06-05T08:38:13;5.20;;;2.90;;
35290;SDS011;21411;50.024;19.220;2023-06-05T08:40:39;6.80;;;3.10;;
35290;SDS011;21411;50.024;19.220;2023-06-05T08:43:08;3.70;;;3.00;;
35290;SDS011;21411;50.024;19.220;2023-06-05T08:45:34;3.00;;;2.50;;
35290;SDS011;21411;50.024;19.220;2023-06-05T08:48:02;5.20;;;2.80;;
35290;SDS011;21411;50.024;19.220;2023-06-05T08:50:31;6.90;;;3.00;;
35290;SDS011;21411;50.024;19.220;2023-06-05T08:53:01;4.40;;;2.40;;
35290;SDS011;21411;50.024;19.220;2023-06-05T08:55:28;5.30;;;2.80;;
35290;SDS011;21411;50.024;19.220;2023-06-05T08:57:56;5.70;;;2.60;;
35290;SDS011;21411;50.024;19.220;2023-06-05T09:00:22;5.90;;;2.90;;
35290;SDS011;21411;50.024;19.220;2023-06-05T09:02:49;2.40;;;2.10;;
35290;SDS011;21411;50.024;19.220;2023-06-05T09:05:16;4.70;;;2.50;;
35290;SDS011;21411;50.024;19.220;2023-06-05T09:07:44;3.80;;;2.60;;
35290;SDS011;21411;50.024;19.220;2023-06-05T09:13:07;6.60;;;2.80;;
35290;SDS011;21411;50.024;19.220;2023-06-05T09:15:33;4.90;;;2.70;;
35290;SDS011;21411;50.024;19.220;2023-06-05T09:18:04;3.80;;;2.50;;
35290;SDS011;21411;50.024;19.220;2023-06-05T09:20:35;6.00;;;2.50;;
35290;SDS011;21411;50.024;19.220;2023-06-05T09:25:57;5.00;;;2.80;;
35290;SDS011;21411;50.024;19.220;2023-06-05T09:28:25;5.40;;;2.80;;
35290;SDS011;21411;50.024;19.220;2023-06-05T09:31:02;3.50;;;2.60;;
35290;SDS011;21411;50.024;19.220;2023-06-05T09:33:31;5.00;;;2.20;;
35290;SDS011;21411;50.024;19.220;2023-06-05T09:38:34;5.60;;;2.10;;
35290;SDS011;21411;50.024;19.220;2023-06-05T09:41:09;4.40;;;2.60;;
35290;SDS011;21411;50.024;19.220;2023-06-05T09:43:37;3.20;;;2.60;;
35290;SDS011;21411;50.024;19.220;2023-06-05T09:46:11;5.30;;;2.30;;
35290;SDS011;21411;50.024;19.220;2023-06-05T09:48:39;9.70;;;2.60;;
35290;SDS011;21411;50.024;19.220;2023-06-05T09:51:10;4.80;;;3.00;;
35290;SDS011;21411;50.024;19.220;2023-06-05T09:53:40;3.10;;;2.30;;
35290;SDS011;21411;50.024;19.220;2023-06-05T09:56:10;6.60;;;3.60;;
35290;SDS011;21411;50.024;19.220;2023-06-05T09:58:38;4.10;;;2.60;;
35290;SDS011;21411;50.024;19.220;2023-06-05T10:01:12;4.80;;;2.60;;
35290;SDS011;21411;50.024;19.220;2023-06-05T10:03:42;3.60;;;2.40;;
35290;SDS011;21411;50.024;19.220;2023-06-05T10:06:13;3.80;;;2.40;;
35290;SDS011;21411;50.024;19.220;2023-06-05T10:08:40;6.70;;;2.50;;
35290;SDS011;21411;50.024;19.220;2023-06-05T10:11:07;3.80;;;2.40;;
35290;SDS011;21411;50.024;19.220;2023-06-05T10:13:36;4.60;;;2.20;;
35290;SDS011;21411;50.024;19.220;2023-06-05T10:16:03;5.40;;;2.30;;
35290;SDS011;21411;50.024;19.220;2023-06-05T10:18:30;3.60;;;2.40;;
35290;SDS011;21411;50.024;19.220;2023-06-05T10:20:58;3.10;;;2.50;;
35290;SDS011;21411;50.024;19.220;2023-06-05T10:23:25;4.10;;;2.20;;
35290;SDS011;21411;50.024;19.220;2023-06-05T10:25:53;6.30;;;2.80;;
35290;SDS011;21411;50.024;19.220;2023-06-05T10:33:48;3.30;;;2.60;;
35290;SDS011;21411;50.024;19.220;2023-06-05T10:39:11;5.00;;;2.60;;
35290;SDS011;21411;50.024;19.220;2023-06-05T10:41:40;3.20;;;2.70;;
35290;SDS011;21411;50.024;19.220;2023-06-05T10:44:07;3.90;;;2.70;;
35290;SDS011;21411;50.024;19.220;2023-06-05T10:46:36;4.80;;;2.70;;
35290;SDS011;21411;50.024;19.220;2023-06-05T10:51:47;3.50;;;2.50;;
35290;SDS011;21411;50.024;19.220;2023-06-05T10:59:18;4.80;;;2.70;;
35290;SDS011;21411;50.024;19.220;2023-06-05T11:15:02;6.20;;;2.50;;
35290;SDS011;21411;50.024;19.220;2023-06-05T11:17:30;9.50;;;2.80;;
35290;SDS011;21411;50.024;19.220;2023-06-05T11:20:05;3.00;;;2.60;;
35290;SDS011;21411;50.024;19.220;2023-06-05T11:25:35;3.30;;;2.60;;
35290;SDS011;21411;50.024;19.220;2023-06-05T11:28:03;5.10;;;2.70;;
35290;SDS011;21411;50.024;19.220;2023-06-05T11:30:32;6.30;;;3.20;;
35290;SDS011;21411;50.024;19.220;2023-06-05T11:33:07;4.20;;;3.80;;
35290;SDS011;21411;50.024;19.220;2023-06-05T11:35:35;4.00;;;3.00;;
35290;SDS011;21411;50.024;19.220;2023-06-05T11:38:09;4.10;;;3.30;;
35290;SDS011;21411;50.024;19.220;2023-06-05T11:40:37;4.10;;;2.90;;
35290;SDS011;21411;50.024;19.220;2023-06-05T11:43:06;4.80;;;3.20;;
35290;SDS011;21411;50.024;19.220;2023-06-05T11:45:34;5.20;;;3.40;;
35290;SDS011;21411;50.024;19.220;2023-06-05T11:48:03;9.40;;;3.60;;
35290;SDS011;21411;50.024;19.220;2023-06-05T11:50:40;5.20;;;2.90;;
35290;SDS011;21411;50.024;19.220;2023-06-05T11:53:18;3.50;;;3.00;;
35290;SDS011;21411;50.024;19.220;2023-06-05T11:55:44;5.60;;;3.60;;
35290;SDS011;21411;50.024;19.220;2023-06-05T11:58:26;3.40;;;3.10;;
35290;SDS011;21411;50.024;19.220;2023-06-05T12:03:44;3.70;;;3.20;;
35290;SDS011;21411;50.024;19.220;2023-06-05T12:06:12;4.50;;;3.30;;
35290;SDS011;21411;50.024;19.220;2023-06-05T12:08:40;4.40;;;2.80;;
35290;SDS011;21411;50.024;19.220;2023-06-05T12:11:21;6.20;;;2.70;;
35290;SDS011;21411;50.024;19.220;2023-06-05T12:13:50;11.90;;;3.90;;
35290;SDS011;21411;50.024;19.220;2023-06-05T12:16:34;3.70;;;3.40;;
35290;SDS011;21411;50.024;19.220;2023-06-05T12:19:02;8.10;;;2.80;;
35290;SDS011;21411;50.024;19.220;2023-06-05T12:21:38;6.60;;;2.90;;
35290;SDS011;21411;50.024;19.220;2023-06-05T12:24:05;3.70;;;2.90;;
35290;SDS011;21411;50.024;19.220;2023-06-05T12:26:51;5.50;;;2.60;;
35290;SDS011;21411;50.024;19.220;2023-06-05T12:29:20;3.60;;;3.20;;
35290;SDS011;21411;50.024;19.220;2023-06-05T12:31:50;6.50;;;3.20;;
35290;SDS011;21411;50.024;19.220;2023-06-05T12:34:17;5.30;;;3.00;;
35290;SDS011;21411;50.024;19.220;2023-06-05T12:36:44;4.40;;;2.90;;
35290;SDS011;21411;50.024;19.220;2023-06-05T12:39:12;5.00;;;3.00;;
35290;SDS011;21411;50.024;19.220;2023-06-05T12:41:40;3.80;;;3.40;;
35290;SDS011;21411;50.024;19.220;2023-06-05T12:44:07;3.30;;;3.00;;
35290;SDS011;21411;50.024;19.220;2023-06-05T12:46:35;3.30;;;3.00;;
35290;SDS011;21411;50.024;19.220;2023-06-05T12:49:03;3.50;;;2.70;;
35290;SDS011;21411;50.024;19.220;2023-06-05T12:51:31;3.50;;;3.20;;
35290;SDS011;21411;50.024;19.220;2023-06-05T12:53:58;3.80;;;2.70;;
35290;SDS011;21411;50.024;19.220;2023-06-05T12:56:25;5.80;;;3.30;;
35290;SDS011;21411;50.024;19.220;2023-06-05T12:58:53;5.30;;;2.90;;
35290;SDS011;21411;50.024;19.220;2023-06-05T13:01:24;4.70;;;3.30;;
35290;SDS011;21411;50.024;19.220;2023-06-05T13:03:52;4.30;;;3.20;;
35290;SDS011;21411;50.024;19.220;2023-06-05T13:06:19;3.50;;;2.90;;
35290;SDS011;21411;50.024;19.220;2023-06-05T13:08:46;4.20;;;2.90;;
35290;SDS011;21411;50.024;19.220;2023-06-05T13:11:13;4.40;;;2.90;;
35290;SDS011;21411;50.024;19.220;2023-06-05T13:13:40;5.50;;;2.80;;
35290;SDS011;21411;50.024;19.220;2023-06-05T13:16:07;6.10;;;3.30;;
35290;SDS011;21411;50.024;19.220;2023-06-05T13:18:35;4.10;;;3.60;;
35290;SDS011;21411;50.024;19.220;2023-06-05T13:21:03;3.30;;;3.00;;
35290;SDS011;21411;50.024;19.220;2023-06-05T13:23:30;3.90;;;3.60;;
35290;SDS011;21411;50.024;19.220;2023-06-05T13:25:58;4.80;;;3.00;;
35290;SDS011;21411;50.024;19.220;2023-06-05T13:28:25;5.00;;;3.00;;
35290;SDS011;21411;50.024;19.220;2023-06-05T13:30:52;5.20;;;3.00;;
35290;SDS011;21411;50.024;19.220;2023-06-05T13:33:19;6.90;;;3.00;;
35290;SDS011;21411;50.024;19.220;2023-06-05T13:35:47;3.50;;;3.20;;
35290;SDS011;21411;50.024;19.220;2023-06-05T13:38:13;9.20;;;3.60;;
35290;SDS011;21411;50.024;19.220;2023-06-05T13:40:40;7.90;;;3.20;;
35290;SDS011;21411;50.024;19.220;2023-06-05T13:43:08;3.90;;;3.40;;
35290;SDS011;21411;50.024;19.220;2023-06-05T13:45:35;4.90;;;3.00;;
35290;SDS011;21411;50.024;19.220;2023-06-05T13:48:01;8.00;;;3.80;;
35290;SDS011;21411;50.024;19.220;2023-06-05T13:50:28;8.60;;;4.10;;
35290;SDS011;21411;50.024;19.220;2023-06-05T13:52:55;5.80;;;3.60;;
35290;SDS011;21411;50.024;19.220;2023-06-05T13:55:21;3.60;;;2.80;;
35290;SDS011;21411;50.024;19.220;2023-06-05T13:57:48;7.20;;;4.00;;
35290;SDS011;21411;50.024;19.220;2023-06-05T14:00:15;4.40;;;3.90;;
35290;SDS011;21411;50.024;19.220;2023-06-05T14:02:42;8.10;;;4.20;;
35290;SDS011;21411;50.024;19.220;2023-06-05T14:05:09;5.50;;;3.50;;
35290;SDS011;21411;50.024;19.220;2023-06-05T14:07:37;5.20;;;4.00;;
35290;SDS011;21411;50.024;19.220;2023-06-05T14:10:04;7.30;;;4.10;;
35290;SDS011;21411;50.024;19.220;2023-06-05T14:12:31;5.10;;;3.40;;
35290;SDS011;21411;50.024;19.220;2023-06-05T14:14:58;3.30;;;3.00;;
35290;SDS011;21411;50.024;19.220;2023-06-05T14:17:24;3.40;;;3.10;;
35290;SDS011;21411;50.024;19.220;2023-06-05T14:19:51;6.30;;;4.00;;
35290;SDS011;21411;50.024;19.220;2023-06-05T14:22:17;4.30;;;3.10;;
35290;SDS011;21411;50.024;19.220;2023-06-05T14:24:44;9.80;;;3.70;;
35290;SDS011;21411;50.024;19.220;2023-06-05T14:27:11;4.90;;;3.50;;
35290;SDS011;21411;50.024;19.220;2023-06-05T14:29:39;3.70;;;3.10;;
35290;SDS011;21411;50.024;19.220;2023-06-05T14:32:06;5.10;;;3.20;;
35290;SDS011;21411;50.024;19.220;2023-06-05T14:34:33;4.80;;;2.80;;
35290;SDS011;21411;50.024;19.220;2023-06-05T14:37:00;4.30;;;3.20;;
35290;SDS011;21411;50.024;19.220;2023-06-05T14:39:26;4.20;;;3.20;;
35290;SDS011;21411;50.024;19.220;2023-06-05T14:41:53;7.60;;;3.20;;
35290;SDS011;21411;50.024;19.220;2023-06-05T14:44:20;6.00;;;3.40;;
35290;SDS011;21411;50.024;19.220;2023-06-05T14:46:46;3.70;;;2.90;;
35290;SDS011;21411;50.024;19.220;2023-06-05T14:49:13;4.20;;;3.20;;
35290;SDS011;21411;50.024;19.220;2023-06-05T14:51:40;3.10;;;2.80;;
35290;SDS011;21411;50.024;19.220;2023-06-05T14:54:06;3.70;;;3.20;;
35290;SDS011;21411;50.024;19.220;2023-06-05T14:56:33;5.80;;;3.20;;
35290;SDS011;21411;50.024;19.220;2023-06-05T14:59:00;6.70;;;3.70;;
35290;SDS011;21411;50.024;19.220;2023-06-05T15:01:26;4.70;;;2.90;;
35290;SDS011;21411;50.024;19.220;2023-06-05T15:03:53;7.20;;;3.40;;
35290;SDS011;21411;50.024;19.220;2023-06-05T15:06:19;6.70;;;3.60;;
35290;SDS011;21411;50.024;19.220;2023-06-05T15:08:46;4.90;;;3.10;;
35290;SDS011;21411;50.024;19.220;2023-06-05T15:11:13;6.30;;;3.60;;
35290;SDS011;21411;50.024;19.220;2023-06-05T15:13:39;6.60;;;4.20;;
35290;SDS011;21411;50.024;19.220;2023-06-05T15:16:06;4.90;;;3.20;;
35290;SDS011;21411;50.024;19.220;2023-06-05T15:18:33;7.80;;;4.10;;
35290;SDS011;21411;50.024;19.220;2023-06-05T15:21:00;6.50;;;4.00;;
35290;SDS011;21411;50.024;19.220;2023-06-05T15:23:27;4.90;;;3.70;;
35290;SDS011;21411;50.024;19.220;2023-06-05T15:25:53;5.20;;;3.10;;
35290;SDS011;21411;50.024;19.220;2023-06-05T15:28:20;4.10;;;3.60;;